Surface observations / UK / EGBB

Quebec | Canada | USA | France | UK | Europe | Elsewhere

Display: Info & Location for EGBB | Help decoding METAR

EGBB BIRMINGHAM AIRPORT -- UK
Raw surface observations for station EGBB
EGBB 312350Z 27004KT CAVOK 15/12 Q1022=
EGBB 312320Z 28004KT CAVOK 15/12 Q1022=
EGBB 312250Z 28005KT CAVOK 16/12 Q1021=
EGBB 312220Z 27005KT CAVOK 16/12 Q1021=
EGBB 312150Z 28005KT CAVOK 16/11 Q1021=
EGBB 312120Z 29005KT CAVOK 17/11 Q1021=
EGBB 312050Z 30006KT 260V320 CAVOK 17/11 Q1021=
EGBB 312020Z 28005KT CAVOK 17/11 Q1021=
EGBB 311950Z 29004KT CAVOK 18/10 Q1021=
EGBB 311920Z 30006KT CAVOK 18/10 Q1020=
EGBB 311850Z 31007KT CAVOK 19/10 Q1020=
EGBB 311820Z 31007KT CAVOK 19/10 Q1020=
EGBB 311750Z 31010KT 9999 FEW043 20/10 Q1020=
EGBB 311720Z 30009KT 9999 FEW045 21/10 Q1020=
EGBB 311650Z 29008KT 250V320 9999 FEW048 21/09 Q1019=
EGBB 311620Z 27010KT 9999 FEW045 21/09 Q1019=
EGBB 311550Z 27010KT 9999 FEW045 22/09 Q1019=
EGBB 311520Z 28009KT 240V320 CAVOK 22/09 Q1019=
EGBB 311450Z 27008KT 240V300 9999 FEW010 SCT030 22/13 Q1018=
EGBB 311420Z 23007KT 200V270 9999 FEW015 SCT030 21/15 Q1018=
EGBB 311350Z 21008KT 170V270 9999 FEW016 SCT021 21/16 Q1019=
EGBB 311320Z 21009KT 170V260 9999 SCT019 20/16 Q1019=
EGBB 311250Z 22008KT 180V260 9999 SCT019 20/16 Q1019=
EGBB 311220Z 23007KT 180V270 9999 SCT021 BKN032 20/16 Q1018=
EGBB 311150Z 22006KT 170V270 9999 BKN021 20/15 Q1018=
EGBB 311120Z 19006KT 170V230 9999 BKN021 19/15 Q1018=
EGBB 311050Z 22007KT 190V260 9999 BKN024 19/15 Q1018=
EGBB 311020Z 20008KT 9999 BKN023 19/15 Q1019=
EGBB 310950Z 21008KT 180V260 9999 BKN021 19/14 Q1019=
EGBB 310920Z 20006KT 170V250 9999 FEW019 SCT025 BKN040 18/14 Q1019=
EGBB 310850Z 20005KT 170V250 9999 FEW012 BKN023 17/14 Q1019=
EGBB 310820Z 20007KT 160V230 9999 FEW010 BKN027 17/14 Q1019=
EGBB 310750Z 19005KT 150V220 9999 FEW023 BKN028 15/14 Q1019=
EGBB 310720Z 19006KT 160V220 9000 BKN032 14/14 Q1018=
EGBB 310650Z 19005KT 9000 BKN030 14/14 Q1018=
EGBB 310620Z 20004KT 160V240 9000 FEW027 BKN033 14/13 Q1019=
EGBB 310550Z VRB03KT 9999 7000N BKN028 14/13 Q1019=
EGBB 310520Z 18005KT 9999 7000N BKN033 13/13 Q1019=
EGBB 010520Z VRB02KT CAVOK 12/11 Q1022=
EGBB 010450Z 23003KT CAVOK 13/12 Q1022=
EGBB 010420Z 24004KT CAVOK 13/12 Q1022=
EGBB 010350Z 23003KT CAVOK 13/12 Q1022=
EGBB 010320Z 23003KT CAVOK 14/12 Q1022=
EGBB 010250Z 26003KT 9999 FEW037 15/12 Q1022=
EGBB 010220Z VRB02KT 9999 BKN048 15/12 Q1022=
EGBB 010150Z 17003KT 9999 OVC049 14/12 Q1022=
EGBB 010120Z VRB02KT CAVOK 15/12 Q1022=
EGBB 010050Z VRB03KT CAVOK 15/12 Q1022=
EGBB 010020Z 27004KT CAVOK 15/12 Q1022=